createdAt,value
2023-01-19T00:00:40.403Z,97345.72
2023-01-19T00:03:15.864Z,97341.50
2023-01-19T00:05:44.077Z,97348.22
2023-01-19T00:08:15.112Z,97350.22
2023-01-19T00:10:54.075Z,97345.53
2023-01-19T00:13:21.075Z,97348.22
2023-01-19T00:15:48.040Z,97357.78
2023-01-19T00:18:14.955Z,97358.34
2023-01-19T00:20:42.080Z,97360.13
2023-01-19T00:23:09.563Z,97373.78
2023-01-19T00:25:42.714Z,97365.44
2023-01-19T00:28:11.796Z,97355.13
2023-01-19T00:30:39.651Z,97360.13
2023-01-19T00:33:06.530Z,97369.25
2023-01-19T00:35:34.723Z,97365.22
2023-01-19T00:38:02.702Z,97369.16
2023-01-19T00:40:29.684Z,97364.34
2023-01-19T00:42:56.600Z,97360.69
2023-01-19T00:45:24.692Z,97364.09
2023-01-19T00:47:57.222Z,97353.56
2023-01-19T00:50:25.763Z,97352.63
2023-01-19T00:52:54.202Z,97345.78
2023-01-19T00:55:21.813Z,97340.00
2023-01-19T00:57:49.169Z,97335.41
2023-01-19T01:00:19.600Z,97325.72
2023-01-19T01:02:47.556Z,97328.34
2023-01-19T01:05:14.736Z,97322.44
2023-01-19T01:07:43.079Z,97326.28
2023-01-19T01:10:22.300Z,97319.81
2023-01-19T01:13:20.553Z,97322.75
2023-01-19T01:15:36.668Z,97330.06
2023-01-19T01:18:03.665Z,97325.78
2023-01-19T01:20:31.247Z,97325.38
2023-01-19T01:22:58.713Z,97335.22
2023-01-19T01:25:27.599Z,97330.59
2023-01-19T01:27:55.244Z,97335.91
2023-01-19T01:30:22.890Z,97340.91
2023-01-19T01:32:50.167Z,97334.91
2023-01-19T01:35:17.192Z,97335.19
2023-01-19T01:37:44.194Z,97325.78
2023-01-19T01:40:14.626Z,97318.78
2023-01-19T01:42:42.726Z,97306.50
2023-01-19T01:45:28.696Z,97319.47
2023-01-19T01:48:03.602Z,97316.88
2023-01-19T01:50:34.312Z,97311.97
2023-01-19T01:53:07.506Z,97303.09
2023-01-19T01:55:49.320Z,97306.75
2023-01-19T01:58:16.742Z,97302.56
2023-01-19T02:01:02.545Z,97304.69
2023-01-19T02:03:30.097Z,97321.00
2023-01-19T02:06:00.871Z,97330.53
2023-01-19T02:08:59.650Z,97340.31
2023-01-19T02:11:46.283Z,97333.63
2023-01-19T02:14:13.290Z,97338.44
2023-01-19T02:16:40.379Z,97342.66
2023-01-19T02:19:12.840Z,97337.84
2023-01-19T02:21:54.411Z,97344.94
2023-01-19T02:24:21.957Z,97339.19
2023-01-19T02:26:49.331Z,97356.31
2023-01-19T02:29:21.387Z,97356.81
2023-01-19T02:31:48.483Z,97350.81
2023-01-19T02:34:18.265Z,97352.81
2023-01-19T02:36:50.878Z,97355.94
2023-01-19T02:39:21.002Z,97366.91
2023-01-19T02:41:55.842Z,97363.56
2023-01-19T02:44:24.642Z,97364.56
2023-01-19T02:46:54.374Z,97365.38
2023-01-19T02:49:21.372Z,97360.06
2023-01-19T02:51:49.130Z,97370.47
2023-01-19T02:54:27.807Z,97376.00
2023-01-19T02:57:23.726Z,97380.44
2023-01-19T03:00:02.161Z,97395.63
2023-01-19T03:03:03.681Z,97403.72
2023-01-19T03:05:57.486Z,97391.38
2023-01-19T03:08:52.347Z,97390.41
2023-01-19T03:11:19.255Z,97391.97
2023-01-19T03:13:50.192Z,97400.53
2023-01-19T03:16:30.119Z,97390.94
2023-01-19T03:19:06.062Z,97401.00
2023-01-19T03:21:36.256Z,97389.72
2023-01-19T03:24:06.668Z,97385.88
2023-01-19T03:26:41.272Z,97389.78
2023-01-19T03:29:10.629Z,97397.16
2023-01-19T03:31:38.689Z,97395.00
2023-01-19T03:34:08.373Z,97402.19
2023-01-19T03:36:47.665Z,97400.47
2023-01-19T03:39:19.969Z,97406.00
2023-01-19T03:41:50.049Z,97404.94
2023-01-19T03:44:17.449Z,97406.75
2023-01-19T03:46:46.563Z,97397.34
2023-01-19T03:49:13.933Z,97407.91
2023-01-19T03:51:40.876Z,97395.63
2023-01-19T03:54:10.416Z,97398.06
2023-01-19T03:56:38.096Z,97402.47
2023-01-19T03:59:08.085Z,97407.41
2023-01-19T04:01:35.102Z,97406.75
2023-01-19T04:04:02.146Z,97407.22
2023-01-19T04:06:29.174Z,97411.38
2023-01-19T04:08:56.122Z,97413.28
2023-01-19T04:11:23.153Z,97403.44
2023-01-19T04:13:50.375Z,97406.47
2023-01-19T04:16:20.624Z,97401.47
2023-01-19T04:18:48.558Z,97402.47
2023-01-19T04:21:16.195Z,97402.53
2023-01-19T04:23:44.546Z,97396.66
2023-01-19T04:26:11.491Z,97395.97
2023-01-19T04:28:39.099Z,97387.06
2023-01-19T04:31:07.347Z,97396.06
2023-01-19T04:33:34.801Z,97399.91
2023-01-19T04:36:02.165Z,97409.63
2023-01-19T04:38:29.023Z,97404.69
2023-01-19T04:40:55.965Z,97407.09
2023-01-19T04:43:24.033Z,97414.72
2023-01-19T04:45:51.420Z,97413.19
2023-01-19T04:48:18.889Z,97419.31
2023-01-19T04:50:46.606Z,97411.47
2023-01-19T04:53:13.907Z,97427.34
2023-01-19T04:55:41.089Z,97422.59
2023-01-19T04:58:08.163Z,97430.03
2023-01-19T05:00:35.124Z,97425.88
2023-01-19T05:03:02.450Z,97418.16
2023-01-19T05:05:29.843Z,97429.06
2023-01-19T05:07:56.894Z,97427.50
2023-01-19T05:10:24.057Z,97429.53
2023-01-19T05:12:51.429Z,97438.44
2023-01-19T05:15:18.778Z,97438.16
2023-01-19T05:17:45.841Z,97439.44
2023-01-19T05:20:16.105Z,97427.59
2023-01-19T05:22:48.413Z,97430.06
2023-01-19T05:25:15.300Z,97433.69
2023-01-19T05:27:42.249Z,97442.06
2023-01-19T05:30:10.050Z,97439.28
2023-01-19T05:32:36.968Z,97435.66
2023-01-19T05:35:04.096Z,97435.00
2023-01-19T05:37:32.770Z,97436.75
2023-01-19T05:39:59.785Z,97446.06
2023-01-19T05:42:26.651Z,97444.25
2023-01-19T05:44:53.538Z,97460.59
2023-01-19T05:47:20.423Z,97460.19
2023-01-19T05:49:47.273Z,97466.22
2023-01-19T05:52:15.010Z,97472.19
2023-01-19T05:54:41.924Z,97476.00
2023-01-19T05:57:09.011Z,97474.91
2023-01-19T05:59:35.887Z,97479.84
2023-01-19T06:02:02.988Z,97490.59
2023-01-19T06:04:30.247Z,97498.81
2023-01-19T06:06:57.411Z,97491.28
2023-01-19T06:09:24.308Z,97499.00
2023-01-19T06:11:51.217Z,97504.00
2023-01-19T06:14:18.127Z,97509.41
2023-01-19T06:16:45.066Z,97512.75
2023-01-19T06:19:12.085Z,97518.22
2023-01-19T06:21:38.986Z,97517.84
2023-01-19T06:24:06.293Z,97524.09
2023-01-19T06:26:33.155Z,97524.25
2023-01-19T06:29:00.025Z,97515.84
2023-01-19T06:31:26.908Z,97524.22
2023-01-19T06:33:53.864Z,97518.44
2023-01-19T06:36:20.782Z,97522.22
2023-01-19T06:38:47.840Z,97524.25
2023-01-19T06:41:14.936Z,97530.41
2023-01-19T06:43:41.780Z,97529.81
2023-01-19T06:46:08.904Z,97533.59
2023-01-19T06:48:35.803Z,97538.44
2023-01-19T06:51:02.733Z,97532.38
2023-01-19T06:53:30.369Z,97526.28
2023-01-19T06:56:03.159Z,97520.97
2023-01-19T06:58:31.884Z,97512.91
2023-01-19T07:01:06.178Z,97508.88
2023-01-19T07:03:34.550Z,97509.09
2023-01-19T07:06:06.771Z,97518.22
2023-01-19T07:08:35.099Z,97515.22
2023-01-19T07:11:26.519Z,97518.72
2023-01-19T07:13:55.455Z,97527.81
2023-01-19T07:16:22.765Z,97525.34
2023-01-19T07:18:50.261Z,97523.22
2023-01-19T07:21:17.660Z,97530.38
2023-01-19T07:23:44.923Z,97521.53
2023-01-19T07:26:11.882Z,97523.81
2023-01-19T07:28:38.771Z,97529.03
2023-01-19T07:31:05.882Z,97536.66
2023-01-19T07:33:33.184Z,97541.16
2023-01-19T07:36:00.060Z,97537.66
2023-01-19T07:38:27.050Z,97528.75
2023-01-19T07:41:05.197Z,97535.75
2023-01-19T07:43:33.044Z,97539.69
2023-01-19T07:46:01.717Z,97534.16
2023-01-19T07:48:29.549Z,97540.63
2023-01-19T07:51:13.104Z,97537.41
2023-01-19T07:53:41.991Z,97525.34
2023-01-19T07:56:09.363Z,97519.88
2023-01-19T07:58:36.646Z,97523.34
2023-01-19T08:01:12.615Z,97515.47
2023-01-19T08:03:40.372Z,97511.28
2023-01-19T08:06:07.811Z,97503.63
2023-01-19T08:08:35.136Z,97496.72
2023-01-19T08:11:02.029Z,97501.25
2023-01-19T08:13:28.979Z,97513.84
2023-01-19T08:15:55.956Z,97506.56
2023-01-19T08:18:22.802Z,97506.41
2023-01-19T08:20:49.897Z,97514.47
2023-01-19T08:23:18.252Z,97518.44
2023-01-19T08:25:46.110Z,97522.13
2023-01-19T08:28:18.335Z,97524.63
2023-01-19T08:30:45.810Z,97513.16
2023-01-19T08:33:13.913Z,97524.84
2023-01-19T08:35:43.526Z,97527.78
2023-01-19T08:38:11.121Z,97523.63
2023-01-19T08:40:40.458Z,97540.94
2023-01-19T08:43:10.514Z,97548.97
2023-01-19T08:45:48.180Z,97545.00
2023-01-19T08:48:17.273Z,97552.09
2023-01-19T08:50:47.045Z,97566.13
2023-01-19T08:53:14.753Z,97577.53
2023-01-19T08:55:42.190Z,97578.28
2023-01-19T08:58:09.568Z,97576.44
2023-01-19T09:00:38.142Z,97578.31
2023-01-19T09:03:11.580Z,97581.13
2023-01-19T09:05:39.133Z,97577.91
2023-01-19T09:08:11.374Z,97563.59
2023-01-19T09:10:39.361Z,97566.34
2023-01-19T09:13:10.966Z,97564.16
2023-01-19T09:15:39.326Z,97554.13
2023-01-19T09:18:10.356Z,97554.25
2023-01-19T09:20:39.166Z,97544.06
2023-01-19T09:23:06.419Z,97540.16
2023-01-19T09:25:33.364Z,97542.16
2023-01-19T09:28:01.134Z,97528.84
2023-01-19T09:30:28.587Z,97529.81
2023-01-19T09:32:55.515Z,97516.56
2023-01-19T09:35:22.421Z,97521.81
2023-01-19T09:37:49.493Z,97508.75
2023-01-19T09:40:20.745Z,97521.81
2023-01-19T09:43:32.897Z,97521.09
2023-01-19T10:17:52.542Z,97465.28
2023-01-19T10:20:29.053Z,97470.88
2023-01-19T10:22:57.227Z,97472.91
2023-01-19T10:25:24.606Z,97470.94
2023-01-19T10:27:51.913Z,97474.16
2023-01-19T10:30:26.394Z,97462.75
2023-01-19T10:32:53.615Z,97450.69
2023-01-19T10:35:25.246Z,97451.91
2023-01-19T10:37:56.505Z,97441.06
2023-01-19T10:40:56.693Z,97421.09
2023-01-19T10:43:41.919Z,97432.78
2023-01-19T10:46:45.788Z,97436.13
2023-01-19T10:49:44.860Z,97425.69
2023-01-19T10:52:33.039Z,97434.25
2023-01-19T10:55:02.429Z,97440.78
2023-01-19T10:57:33.273Z,97426.22
2023-01-19T11:00:00.271Z,97427.66
2023-01-19T11:02:29.735Z,97433.13
2023-01-19T11:05:02.226Z,97427.59
2023-01-19T11:07:34.153Z,97416.38
2023-01-19T11:10:16.180Z,97419.38
2023-01-19T11:13:01.921Z,97419.09
2023-01-19T11:15:33.927Z,97427.47
2023-01-19T11:18:03.137Z,97420.56
2023-01-19T11:20:44.149Z,97412.75
2023-01-19T11:23:25.038Z,97413.91
2023-01-19T11:25:54.388Z,97411.47
2023-01-19T11:28:26.633Z,97411.00
2023-01-19T11:31:19.690Z,97408.00
2023-01-19T11:33:54.778Z,97411.81
2023-01-19T11:36:27.582Z,97412.28
2023-01-19T11:38:57.642Z,97417.22
2023-01-19T11:41:33.289Z,97424.97
2023-01-19T11:44:16.196Z,97421.31
2023-01-19T11:46:45.223Z,97427.91
2023-01-19T11:49:20.487Z,97406.31
2023-01-19T11:52:05.514Z,97404.31
2023-01-19T11:54:40.714Z,97412.25
2023-01-19T11:57:13.817Z,97421.69
2023-01-19T11:59:40.968Z,97404.31
2023-01-19T12:02:27.865Z,97408.00
2023-01-19T12:05:06.466Z,97400.91
2023-01-19T12:07:36.810Z,97399.44
2023-01-19T12:10:31.963Z,97385.16
2023-01-19T12:13:00.517Z,97392.53
2023-01-19T12:15:37.082Z,97388.03
2023-01-19T12:18:06.823Z,97397.22
2023-01-19T12:20:47.653Z,97405.41
2023-01-19T12:23:20.602Z,97393.81
2023-01-19T12:26:08.944Z,97417.13
2023-01-19T12:28:40.257Z,97406.53
2023-01-19T12:31:08.492Z,97411.44
2023-01-19T12:33:40.155Z,97415.09
2023-01-19T12:36:09.940Z,97404.50
2023-01-19T12:38:54.103Z,97411.03
2023-01-19T12:41:22.978Z,97411.84
2023-01-19T12:44:09.801Z,97404.91
2023-01-19T12:46:47.878Z,97411.25
2023-01-19T12:49:28.331Z,97412.69
2023-01-19T12:52:36.558Z,97428.81
2023-01-19T12:55:15.457Z,97428.22
2023-01-19T12:58:24.268Z,97414.28
2023-01-19T13:01:19.353Z,97419.22
2023-01-19T13:03:58.353Z,97449.41
2023-01-19T13:06:48.573Z,97447.41
2023-01-19T13:09:37.177Z,97439.81
2023-01-19T13:12:24.105Z,97440.00
2023-01-19T13:14:51.047Z,97444.31
2023-01-19T13:17:23.700Z,97451.25
2023-01-19T13:19:56.724Z,97459.59
2023-01-19T13:22:51.036Z,97450.00
2023-01-19T13:25:31.617Z,97456.72
2023-01-19T13:27:59.090Z,97448.19
2023-01-19T13:30:28.485Z,97448.38
2023-01-19T13:33:07.008Z,97444.91
2023-01-19T13:35:34.278Z,97453.69
2023-01-19T13:38:02.069Z,97450.59
2023-01-19T13:40:38.728Z,97446.50
2023-01-19T13:43:15.381Z,97451.19
2023-01-19T13:45:53.130Z,97443.59
2023-01-19T13:48:22.716Z,97434.19
2023-01-19T13:51:07.199Z,97440.72
2023-01-19T13:53:34.606Z,97432.28
2023-01-19T13:56:07.881Z,97432.44
2023-01-19T13:58:35.154Z,97437.34
2023-01-19T14:01:02.302Z,97440.59
2023-01-19T14:03:29.361Z,97429.97
2023-01-19T14:05:56.392Z,97424.47
2023-01-19T14:08:25.809Z,97419.16
2023-01-19T14:10:56.502Z,97424.47
2023-01-19T14:13:32.721Z,97417.22
2023-01-19T14:16:04.688Z,97421.28
2023-01-19T14:18:36.261Z,97428.44
2023-01-19T14:21:07.947Z,97439.38
2023-01-19T14:23:45.588Z,97421.22
2023-01-19T14:26:37.544Z,97435.47
2023-01-19T14:29:10.364Z,97447.63
2023-01-19T14:31:53.160Z,97446.78
2023-01-19T14:34:40.075Z,97447.81
2023-01-19T14:37:22.287Z,97454.22
2023-01-19T14:39:56.563Z,97469.94
2023-01-19T14:42:32.652Z,97478.28
2023-01-19T14:45:02.876Z,97479.03
2023-01-19T14:47:37.291Z,97482.63
2023-01-19T14:50:10.927Z,97490.28
2023-01-19T14:52:41.918Z,97498.75
2023-01-19T14:55:21.251Z,97491.06
2023-01-19T14:57:48.634Z,97502.78
2023-01-19T15:00:19.179Z,97500.47
2023-01-19T15:02:47.184Z,97499.97
2023-01-19T15:05:14.838Z,97494.72
2023-01-19T15:07:45.958Z,97495.69
2023-01-19T15:10:18.493Z,97495.13
2023-01-19T15:12:45.531Z,97496.75
2023-01-19T15:15:25.866Z,97513.56
2023-01-19T15:17:56.056Z,97500.06
2023-01-19T15:20:23.996Z,97505.44
2023-01-19T15:22:51.004Z,97508.25
2023-01-19T15:25:26.206Z,97511.88
2023-01-19T15:27:53.381Z,97508.97
2023-01-19T15:30:24.019Z,97507.66
2023-01-19T15:32:51.664Z,97515.09
2023-01-19T15:35:21.313Z,97522.38
2023-01-19T15:37:49.116Z,97523.25
2023-01-19T15:40:17.625Z,97534.44
2023-01-19T15:42:44.834Z,97544.81
2023-01-19T15:45:42.121Z,97541.72
2023-01-19T15:48:13.133Z,97536.00
2023-01-19T15:50:45.262Z,97535.66
2023-01-19T15:53:15.249Z,97533.00
2023-01-19T15:55:42.631Z,97516.88
2023-01-19T15:58:12.068Z,97520.59
2023-01-19T16:00:40.078Z,97523.81
2023-01-19T16:03:07.160Z,97532.16
2023-01-19T16:05:42.668Z,97527.84
2023-01-19T16:08:14.556Z,97510.31
2023-01-19T16:10:42.228Z,97492.06
2023-01-19T16:13:11.769Z,97486.69
2023-01-19T16:15:42.335Z,97485.69
2023-01-19T16:18:09.304Z,97484.44
2023-01-19T16:20:36.146Z,97475.66
2023-01-19T16:23:21.118Z,97463.16
2023-01-19T16:26:07.880Z,97475.38
2023-01-19T16:28:37.390Z,97464.44
2023-01-19T16:31:04.767Z,97473.00
2023-01-19T16:33:31.687Z,97477.41
2023-01-19T16:35:58.619Z,97479.28
2023-01-19T16:38:25.537Z,97485.94
2023-01-19T16:40:52.375Z,97461.72
2023-01-19T16:43:19.364Z,97465.72
2023-01-19T16:46:00.857Z,97472.56
2023-01-19T16:48:28.176Z,97462.53
2023-01-19T16:51:02.401Z,97449.44
2023-01-19T16:53:30.486Z,97448.22
2023-01-19T16:55:57.482Z,97442.66
2023-01-19T16:58:24.606Z,97425.81
2023-01-19T17:00:51.602Z,97413.59
2023-01-19T17:03:18.523Z,97423.81
2023-01-19T17:05:49.916Z,97422.81
2023-01-19T17:08:20.687Z,97423.53
2023-01-19T17:10:48.258Z,97419.50
2023-01-19T17:13:15.483Z,97411.84
2023-01-19T17:15:43.349Z,97420.34
2023-01-19T17:18:10.378Z,97441.50
2023-01-19T17:20:37.635Z,97431.91
2023-01-19T17:23:04.619Z,97457.59
2023-01-19T17:25:31.603Z,97461.00
2023-01-19T17:28:01.689Z,97478.22
2023-01-19T17:30:28.728Z,97477.94
2023-01-19T17:32:55.734Z,97489.78
2023-01-19T17:35:22.599Z,97488.78
2023-01-19T17:37:53.636Z,97482.13
2023-01-19T17:40:20.733Z,97492.06
2023-01-19T17:42:48.124Z,97486.31
2023-01-19T17:45:15.085Z,97503.09
2023-01-19T17:47:41.996Z,97505.38
2023-01-19T17:50:09.734Z,97504.94
2023-01-19T17:52:36.924Z,97502.59
2023-01-19T17:55:04.040Z,97505.91
2023-01-19T17:57:30.994Z,97503.97
2023-01-19T17:59:57.863Z,97505.34
2023-01-19T18:02:26.136Z,97520.19
2023-01-19T18:04:53.258Z,97514.44
2023-01-19T18:07:20.322Z,97526.47
2023-01-19T18:09:47.303Z,97537.13
2023-01-19T18:12:14.288Z,97533.47
2023-01-19T18:14:41.567Z,97537.47
2023-01-19T18:17:08.629Z,97544.75
2023-01-19T18:19:35.627Z,97549.94
2023-01-19T18:22:02.743Z,97533.91
2023-01-19T18:24:29.867Z,97536.13
2023-01-19T18:26:56.750Z,97523.72
2023-01-19T18:29:23.832Z,97529.63
2023-01-19T18:31:50.832Z,97533.56
2023-01-19T18:34:17.823Z,97532.56
2023-01-19T18:36:44.865Z,97530.41
2023-01-19T18:39:12.143Z,97535.97
2023-01-19T18:41:42.294Z,97530.34
2023-01-19T18:44:10.249Z,97534.00
2023-01-19T18:46:38.610Z,97530.31
2023-01-19T18:49:06.044Z,97532.25
2023-01-19T18:51:32.989Z,97538.34
2023-01-19T18:54:00.481Z,97544.28
2023-01-19T18:56:27.620Z,97549.47
2023-01-19T18:58:54.905Z,97545.72
2023-01-19T19:01:26.042Z,97548.00
2023-01-19T19:03:55.049Z,97551.34
2023-01-19T19:06:23.551Z,97547.59
2023-01-19T19:08:56.174Z,97539.88
2023-01-19T19:11:25.429Z,97560.91
2023-01-19T19:13:54.137Z,97535.09
2023-01-19T19:16:21.057Z,97551.78
2023-01-19T19:18:51.042Z,97557.13
2023-01-19T19:21:19.384Z,97558.78
2023-01-19T19:23:53.966Z,97552.38
2023-01-19T19:26:21.384Z,97569.38
2023-01-19T19:28:48.457Z,97546.50
2023-01-19T19:31:20.703Z,97544.75
2023-01-19T19:33:49.080Z,97543.78
2023-01-19T19:36:16.085Z,97544.47
2023-01-19T19:38:44.554Z,97552.72
2023-01-19T19:41:18.101Z,97562.44
2023-01-19T19:43:45.090Z,97561.97
2023-01-19T19:46:14.322Z,97550.00
2023-01-19T19:48:41.764Z,97549.75
2023-01-19T19:51:18.393Z,97557.84
2023-01-19T19:53:47.872Z,97566.34
2023-01-19T19:56:16.143Z,97568.69
2023-01-19T19:58:43.546Z,97557.44
2023-01-19T20:01:16.216Z,97558.94
2023-01-19T20:03:44.197Z,97553.84
2023-01-19T20:06:18.162Z,97556.94
2023-01-19T20:08:45.159Z,97549.09
2023-01-19T20:11:15.040Z,97543.03
2023-01-19T20:13:44.408Z,97542.06
2023-01-19T20:16:15.140Z,97548.84
2023-01-19T20:18:48.529Z,97534.34
2023-01-19T20:21:19.654Z,97538.28
2023-01-19T20:23:47.474Z,97535.97
2023-01-19T20:26:16.682Z,97531.59
2023-01-19T20:28:43.695Z,97533.34
2023-01-19T20:31:26.603Z,97548.19
2023-01-19T20:33:55.758Z,97555.63
2023-01-19T20:36:24.426Z,97554.13
2023-01-19T20:38:54.987Z,97571.72
2023-01-19T20:41:23.193Z,97567.13
2023-01-19T20:43:50.886Z,97580.31
2023-01-19T20:46:18.498Z,97573.03
2023-01-19T20:48:50.860Z,97579.00
2023-01-19T20:51:19.044Z,97586.75
2023-01-19T20:53:46.314Z,97588.53
2023-01-19T20:56:14.962Z,97589.00
2023-01-19T20:58:42.223Z,97594.66
2023-01-19T21:01:14.482Z,97589.69
2023-01-19T21:03:42.431Z,97588.06
2023-01-19T21:06:09.847Z,97585.59
2023-01-19T21:08:37.920Z,97582.41
2023-01-19T21:11:05.843Z,97574.00
2023-01-19T21:13:33.114Z,97569.41
2023-01-19T21:16:00.461Z,97573.53
2023-01-19T21:18:28.105Z,97569.28
2023-01-19T21:20:57.559Z,97565.81
2023-01-19T21:23:25.869Z,97559.66
2023-01-19T21:25:54.616Z,97553.72
2023-01-19T21:28:23.056Z,97554.78
2023-01-19T21:30:50.902Z,97554.66
2023-01-19T21:33:18.553Z,97551.56
2023-01-19T21:35:56.892Z,97552.06
2023-01-19T21:38:28.492Z,97554.06
2023-01-19T21:40:56.717Z,97540.13
2023-01-19T21:43:24.953Z,97542.38
2023-01-19T21:45:52.240Z,97536.94
2023-01-19T21:48:19.872Z,97545.06
2023-01-19T21:50:55.738Z,97543.59
2023-01-19T21:53:22.621Z,97537.63
2023-01-19T21:55:49.653Z,97537.63
2023-01-19T21:58:16.610Z,97527.25
2023-01-19T22:00:43.643Z,97520.66
2023-01-19T22:03:10.987Z,97518.28
2023-01-19T22:05:37.997Z,97521.63
2023-01-19T22:08:06.558Z,97521.47
2023-01-19T22:10:37.610Z,97515.72
2023-01-19T22:13:06.722Z,97513.41
2023-01-19T22:15:33.889Z,97517.84
2023-01-19T22:18:00.812Z,97517.84
2023-01-19T22:20:28.085Z,97517.97
2023-01-19T22:22:56.153Z,97510.06
2023-01-19T22:25:28.055Z,97521.94
2023-01-19T22:27:56.420Z,97508.44
2023-01-19T22:30:23.435Z,97509.34
2023-01-19T22:32:50.613Z,97500.66
2023-01-19T22:35:17.584Z,97505.97
2023-01-19T22:37:44.455Z,97496.09
2023-01-19T22:40:11.902Z,97510.31
2023-01-19T22:42:38.852Z,97509.47
2023-01-19T22:45:06.238Z,97507.22
2023-01-19T22:47:33.206Z,97498.44
2023-01-19T22:50:00.116Z,97496.81
2023-01-19T22:52:27.117Z,97487.19
2023-01-19T22:54:56.423Z,97489.69
2023-01-19T22:57:23.361Z,97495.88
2023-01-19T22:59:50.261Z,97490.78
2023-01-19T23:02:18.620Z,97490.31
2023-01-19T23:04:47.423Z,97483.38
2023-01-19T23:07:14.543Z,97484.38
2023-01-19T23:09:41.568Z,97477.78
2023-01-19T23:12:08.484Z,97472.31
2023-01-19T23:14:36.365Z,97477.78
2023-01-19T23:17:03.397Z,97470.72
2023-01-19T23:19:30.319Z,97458.72
2023-01-19T23:21:57.231Z,97463.00
2023-01-19T23:24:24.130Z,97463.16
2023-01-19T23:26:51.442Z,97469.25
2023-01-19T23:29:19.704Z,97460.84
2023-01-19T23:31:49.623Z,97466.94
2023-01-19T23:34:17.582Z,97455.59
2023-01-19T23:36:44.810Z,97457.41
2023-01-19T23:39:18.669Z,97460.16
2023-01-19T23:41:46.420Z,97456.06
2023-01-19T23:44:13.504Z,97463.47
2023-01-19T23:46:40.475Z,97459.19
2023-01-19T23:49:07.376Z,97456.72
2023-01-19T23:51:34.675Z,97462.84
2023-01-19T23:54:01.819Z,97457.25
2023-01-19T23:56:31.850Z,97465.00
2023-01-19T23:59:01.839Z,97458.41
